createdAt,value
2019-03-23T00:00:48.530Z,0.00
2019-03-23T00:01:48.507Z,0.00
2019-03-23T00:02:48.500Z,0.00
2019-03-23T00:03:48.492Z,0.00
2019-03-23T00:04:48.482Z,0.00
2019-03-23T00:05:48.478Z,0.00
2019-03-23T00:06:48.469Z,0.00
2019-03-23T00:07:48.471Z,0.00
2019-03-23T00:08:48.455Z,0.00
2019-03-23T00:09:48.446Z,0.00
2019-03-23T00:10:48.437Z,0.00
2019-03-23T00:11:48.428Z,0.00
2019-03-23T00:12:48.418Z,0.00
2019-03-23T00:13:48.407Z,0.00
2019-03-23T00:14:48.399Z,0.00
2019-03-23T00:15:48.410Z,0.00
2019-03-23T00:16:48.384Z,0.00
2019-03-23T00:17:48.382Z,0.00
2019-03-23T00:18:48.377Z,0.00
2019-03-23T00:19:48.373Z,0.00
2019-03-23T00:20:48.357Z,0.00
2019-03-23T00:21:48.353Z,0.00
2019-03-23T00:22:48.354Z,0.00
2019-03-23T00:23:48.333Z,0.00
2019-03-23T00:24:48.337Z,0.00
2019-03-23T00:25:48.317Z,0.00
2019-03-23T00:26:48.304Z,0.00
2019-03-23T00:27:48.298Z,0.00
2019-03-23T00:28:48.357Z,0.00
2019-03-23T00:29:48.295Z,0.00
2019-03-23T00:30:48.277Z,0.00
2019-03-23T00:31:48.274Z,0.00
2019-03-23T00:32:48.264Z,0.00
2019-03-23T00:33:48.257Z,0.00
2019-03-23T00:34:48.254Z,0.00
2019-03-23T00:35:48.247Z,0.00
2019-03-23T00:36:48.240Z,0.00
2019-03-23T00:37:48.261Z,0.00
2019-03-23T00:38:48.219Z,0.00
2019-03-23T00:39:48.207Z,0.00
2019-03-23T00:40:48.664Z,0.00
2019-03-23T00:41:48.211Z,0.00
2019-03-23T00:42:48.198Z,0.00
2019-03-23T00:43:48.809Z,0.00
2019-03-23T00:44:48.162Z,0.00
2019-03-23T00:45:48.159Z,0.00
2019-03-23T00:46:48.153Z,0.00
2019-03-23T00:47:48.155Z,0.00
2019-03-23T00:48:48.132Z,0.00
2019-03-23T00:49:48.133Z,0.00
2019-03-23T00:50:48.157Z,0.00
2019-03-23T00:51:48.135Z,0.00
2019-03-23T00:52:48.110Z,0.00
2019-03-23T00:53:48.098Z,0.00
2019-03-23T00:54:48.090Z,0.00
2019-03-23T00:55:48.086Z,0.00
2019-03-23T00:56:48.083Z,0.00
2019-03-23T00:57:48.060Z,0.00
2019-03-23T00:58:48.053Z,0.00
2019-03-23T00:59:48.048Z,0.00
2019-03-23T01:00:48.038Z,0.00
2019-03-23T01:01:48.030Z,0.00
2019-03-23T01:02:48.041Z,0.00
2019-03-23T01:03:48.018Z,0.00
2019-03-23T01:04:48.013Z,0.00
2019-03-23T01:05:48.013Z,0.00
2019-03-23T01:06:52.040Z,0.00
2019-03-23T01:07:47.981Z,0.00
2019-03-23T01:08:47.976Z,0.00
2019-03-23T01:09:47.964Z,0.00
2019-03-23T01:10:47.968Z,0.00
2019-03-23T01:11:47.975Z,0.00
2019-03-23T01:12:47.939Z,0.00
2019-03-23T01:13:47.953Z,0.00
2019-03-23T01:14:47.928Z,0.00
2019-03-23T01:15:48.196Z,0.00
2019-03-23T01:16:47.907Z,0.00
2019-03-23T01:17:47.911Z,0.00
2019-03-23T01:18:47.918Z,0.00
2019-03-23T01:19:47.887Z,0.00
2019-03-23T01:20:49.902Z,0.00
2019-03-23T01:21:47.873Z,0.00
2019-03-23T01:22:47.858Z,0.00
2019-03-23T01:23:47.850Z,0.00
2019-03-23T01:24:47.870Z,0.00
2019-03-23T01:25:47.836Z,0.00
2019-03-23T01:26:47.877Z,0.00
2019-03-23T01:27:47.825Z,0.00
2019-03-23T01:28:47.817Z,0.00
2019-03-23T01:29:47.827Z,0.00
2019-03-23T01:30:47.794Z,0.00
2019-03-23T01:31:47.793Z,0.00
2019-03-23T01:32:47.782Z,0.00
2019-03-23T01:33:47.792Z,0.00
2019-03-23T01:34:47.790Z,0.00
2019-03-23T01:35:47.754Z,0.00
2019-03-23T01:36:47.742Z,0.00
2019-03-23T01:37:47.736Z,0.00
2019-03-23T01:38:47.734Z,0.00
2019-03-23T01:39:47.727Z,0.00
2019-03-23T01:40:47.726Z,0.00
2019-03-23T01:41:47.736Z,0.00
2019-03-23T01:42:47.706Z,0.00
2019-03-23T01:43:47.691Z,0.00
2019-03-23T01:44:47.703Z,0.00
2019-03-23T01:45:47.680Z,0.00
2019-03-23T01:46:47.670Z,0.00
2019-03-23T01:47:47.650Z,0.00
2019-03-23T01:48:47.651Z,0.00
2019-03-23T01:49:47.642Z,0.00
2019-03-23T01:50:47.636Z,0.00
2019-03-23T01:51:47.640Z,0.00
2019-03-23T01:52:47.615Z,0.00
2019-03-23T01:53:47.615Z,0.00
2019-03-23T01:54:47.600Z,0.00
2019-03-23T01:55:47.592Z,0.00
2019-03-23T01:56:47.580Z,0.00
2019-03-23T01:57:47.566Z,0.00
2019-03-23T01:58:47.560Z,0.00
2019-03-23T01:59:47.568Z,0.00
2019-03-23T02:00:47.593Z,0.00
2019-03-23T02:01:47.536Z,0.00
2019-03-23T02:02:47.668Z,0.00
2019-03-23T02:03:47.522Z,0.00
2019-03-23T02:04:47.526Z,0.00
2019-03-23T02:05:47.512Z,0.00
2019-03-23T02:06:47.496Z,0.00
2019-03-23T02:07:55.221Z,0.00
2019-03-23T02:09:41.031Z,0.00
2019-03-23T02:10:41.944Z,0.00
2019-03-23T02:12:34.458Z,0.00
2019-03-23T02:13:34.388Z,0.00
2019-03-23T02:15:28.496Z,0.00
2019-03-23T02:16:28.409Z,0.00
2019-03-23T02:18:29.699Z,0.00
2019-03-23T02:19:29.589Z,0.00
2019-03-23T02:21:15.427Z,0.00
2019-03-23T02:22:15.374Z,0.00
2019-03-23T02:24:08.855Z,0.00
2019-03-23T02:25:08.814Z,0.00
2019-03-23T02:27:05.798Z,0.00
2019-03-23T02:28:02.324Z,0.00
2019-03-23T02:29:55.813Z,0.00
2019-03-23T02:30:55.748Z,0.00
2019-03-23T02:31:55.737Z,0.00
2019-03-23T02:32:55.737Z,0.00
2019-03-23T02:33:55.725Z,0.00
2019-03-23T02:34:55.712Z,0.00
2019-03-23T02:35:55.711Z,0.00
2019-03-23T02:36:55.696Z,0.00
2019-03-23T02:37:55.690Z,0.00
2019-03-23T02:38:55.687Z,0.00
2019-03-23T02:39:55.667Z,0.00
2019-03-23T02:40:55.657Z,0.00
2019-03-23T02:41:55.653Z,0.00
2019-03-23T02:42:55.657Z,0.00
2019-03-23T02:43:55.642Z,0.00
2019-03-23T02:44:55.624Z,0.00
2019-03-23T02:45:55.638Z,0.00
2019-03-23T02:46:55.603Z,0.00
2019-03-23T02:47:55.609Z,0.00
2019-03-23T02:48:55.599Z,0.00
2019-03-23T02:49:55.578Z,0.00
2019-03-23T02:50:55.581Z,0.00
2019-03-23T02:51:55.556Z,0.00
2019-03-23T02:52:55.563Z,0.00
2019-03-23T02:53:55.541Z,0.00
2019-03-23T02:54:55.533Z,0.00
2019-03-23T02:55:55.554Z,0.00
2019-03-23T02:56:55.514Z,0.00
2019-03-23T02:57:55.509Z,0.00
2019-03-23T02:58:55.496Z,0.00
2019-03-23T02:59:55.504Z,0.00
2019-03-23T03:00:55.477Z,0.00
2019-03-23T03:01:55.491Z,0.00
2019-03-23T03:02:55.464Z,0.00
2019-03-23T03:03:55.462Z,0.00
2019-03-23T03:04:55.444Z,0.00
2019-03-23T03:05:57.261Z,0.00
2019-03-23T03:06:55.427Z,0.00
2019-03-23T03:07:55.414Z,0.00
2019-03-23T03:08:55.412Z,0.00
2019-03-23T03:09:55.397Z,0.00
2019-03-23T03:10:56.263Z,0.00
2019-03-23T03:11:55.376Z,0.00
2019-03-23T03:12:55.367Z,0.00
2019-03-23T03:13:55.364Z,0.00
2019-03-23T03:14:55.353Z,0.00
2019-03-23T03:15:55.347Z,0.00
2019-03-23T03:16:55.337Z,0.00
2019-03-23T03:17:55.334Z,0.00
2019-03-23T03:18:55.320Z,0.00
2019-03-23T03:19:55.328Z,0.00
2019-03-23T03:20:55.304Z,0.00
2019-03-23T03:21:55.303Z,0.00
2019-03-23T03:22:55.290Z,0.00
2019-03-23T03:23:55.278Z,0.00
2019-03-23T03:24:55.266Z,0.00
2019-03-23T03:25:55.257Z,0.00
2019-03-23T03:26:55.258Z,0.00
2019-03-23T03:27:55.256Z,0.00
2019-03-23T03:28:55.247Z,0.00
2019-03-23T03:29:55.223Z,0.00
2019-03-23T03:30:55.223Z,0.00
2019-03-23T03:31:55.321Z,0.00
2019-03-23T03:32:55.226Z,0.00
2019-03-23T03:33:55.193Z,0.00
2019-03-23T03:34:55.188Z,0.00
2019-03-23T03:35:55.178Z,0.00
2019-03-23T03:37:01.110Z,0.00
2019-03-23T03:37:57.030Z,0.00
2019-03-23T03:38:55.149Z,0.00
2019-03-23T03:39:55.129Z,0.00
2019-03-23T03:40:55.123Z,0.00
2019-03-23T03:41:55.125Z,0.00
2019-03-23T03:42:55.107Z,0.00
2019-03-23T03:43:55.126Z,0.00
2019-03-23T03:44:55.102Z,0.00
2019-03-23T03:45:55.092Z,0.00
2019-03-23T03:46:55.068Z,0.00
2019-03-23T03:47:55.068Z,0.00
2019-03-23T03:48:55.053Z,0.00
2019-03-23T03:49:55.050Z,0.00
2019-03-23T03:50:55.062Z,0.00
2019-03-23T03:51:55.028Z,0.00
2019-03-23T03:52:55.025Z,0.00
2019-03-23T03:53:55.009Z,0.00
2019-03-23T03:54:54.992Z,0.00
2019-03-23T03:55:55.020Z,0.00
2019-03-23T03:56:54.985Z,0.00
2019-03-23T03:57:54.972Z,0.00
2019-03-23T03:58:54.968Z,0.00
2019-03-23T03:59:54.953Z,0.00
2019-03-23T04:00:54.948Z,0.00
2019-03-23T04:01:54.930Z,0.00
2019-03-23T04:02:54.926Z,0.00
2019-03-23T04:03:54.921Z,0.00
2019-03-23T04:04:54.909Z,0.00
2019-03-23T04:05:54.900Z,0.00
2019-03-23T04:06:54.887Z,0.00
2019-03-23T04:07:54.874Z,0.00
2019-03-23T04:08:54.882Z,0.00
2019-03-23T04:09:54.877Z,0.00
2019-03-23T04:10:54.859Z,0.00
2019-03-23T04:11:54.846Z,0.00
2019-03-23T04:12:54.853Z,0.00
2019-03-23T04:13:54.830Z,0.00
2019-03-23T04:14:54.816Z,0.00
2019-03-23T04:15:54.810Z,0.00
2019-03-23T04:16:54.793Z,0.00
2019-03-23T04:17:54.788Z,0.00
2019-03-23T04:18:54.779Z,0.00
2019-03-23T04:19:54.784Z,0.00
2019-03-23T04:20:54.762Z,0.00
2019-03-23T04:21:54.752Z,0.00
2019-03-23T04:22:54.741Z,0.00
2019-03-23T04:23:54.738Z,0.00
2019-03-23T04:24:54.730Z,0.00
2019-03-23T04:25:54.731Z,0.00
2019-03-23T04:26:54.707Z,0.00
2019-03-23T04:27:54.699Z,0.00
2019-03-23T04:28:54.696Z,0.00
2019-03-23T04:29:54.674Z,0.00
2019-03-23T04:30:54.682Z,0.00
2019-03-23T04:31:54.659Z,0.00
2019-03-23T04:32:54.682Z,0.00
2019-03-23T04:33:54.639Z,0.00
2019-03-23T04:34:54.649Z,0.00
2019-03-23T04:35:54.627Z,0.00
2019-03-23T04:36:54.606Z,0.00
2019-03-23T04:37:54.610Z,0.00
2019-03-23T04:38:54.591Z,0.00
2019-03-23T04:39:54.601Z,0.00
2019-03-23T04:40:54.586Z,0.00
2019-03-23T04:41:54.568Z,0.00
2019-03-23T04:42:54.557Z,0.00
2019-03-23T04:43:56.301Z,0.00
2019-03-23T04:44:54.537Z,0.00
2019-03-23T04:45:54.536Z,0.00
2019-03-23T04:46:54.521Z,0.00
2019-03-23T04:47:54.535Z,0.00
2019-03-23T04:48:54.521Z,0.00
2019-03-23T04:49:54.495Z,0.00
2019-03-23T04:50:54.488Z,0.00
2019-03-23T04:51:54.471Z,0.00
2019-03-23T04:52:54.499Z,0.00
2019-03-23T04:53:54.463Z,0.00
2019-03-23T04:54:54.468Z,0.00
2019-03-23T04:55:54.436Z,0.00
2019-03-23T04:56:54.434Z,0.00
2019-03-23T04:57:54.415Z,0.00
2019-03-23T04:58:54.421Z,4.00
2019-03-23T04:59:54.400Z,4.00
2019-03-23T05:00:54.412Z,0.00
2019-03-23T05:01:54.410Z,0.00
2019-03-23T05:02:54.370Z,4.00
2019-03-23T05:03:54.363Z,0.00
2019-03-23T05:04:54.358Z,0.00
2019-03-23T05:05:54.343Z,4.00
2019-03-23T05:06:54.342Z,4.00
2019-03-23T05:07:54.332Z,4.00
2019-03-23T05:08:54.324Z,8.00
2019-03-23T05:09:54.307Z,8.00
2019-03-23T05:10:54.308Z,8.00
2019-03-23T05:11:54.284Z,12.00
2019-03-23T05:12:54.283Z,12.00
2019-03-23T05:13:54.264Z,16.00
2019-03-23T05:14:54.262Z,20.00
2019-03-23T05:15:54.251Z,24.00
2019-03-23T05:16:54.258Z,24.00
2019-03-23T05:17:54.243Z,28.00
2019-03-23T05:18:54.218Z,32.00
2019-03-23T05:19:54.223Z,36.00
2019-03-23T05:20:54.207Z,36.00
2019-03-23T05:21:54.190Z,40.00
2019-03-23T05:22:54.185Z,40.00
2019-03-23T05:23:54.197Z,52.00
2019-03-23T05:24:54.164Z,52.00
2019-03-23T05:25:54.160Z,56.00
2019-03-23T05:26:54.147Z,60.00
2019-03-23T05:27:54.142Z,68.00
2019-03-23T05:28:54.162Z,72.00
2019-03-23T05:29:54.143Z,80.00
2019-03-23T05:30:54.149Z,84.00
2019-03-23T05:31:54.101Z,88.00
2019-03-23T05:32:54.090Z,104.00
2019-03-23T05:33:54.082Z,112.00
2019-03-23T05:34:54.076Z,120.00
2019-03-23T05:35:54.080Z,124.00
2019-03-23T05:36:54.056Z,132.00
2019-03-23T05:37:54.042Z,136.00
2019-03-23T05:38:54.034Z,152.00
2019-03-23T05:39:54.027Z,148.00
2019-03-23T05:40:54.013Z,156.00
2019-03-23T05:41:54.013Z,176.00
2019-03-23T05:42:53.997Z,192.00
2019-03-23T05:43:53.988Z,196.00
2019-03-23T05:44:53.976Z,212.00
2019-03-23T05:45:53.994Z,232.00
2019-03-23T05:46:54.426Z,256.00
2019-03-23T05:47:53.959Z,268.00
2019-03-23T05:48:53.956Z,288.00
2019-03-23T05:49:53.936Z,292.00
2019-03-23T05:50:53.925Z,296.00
2019-03-23T05:51:53.910Z,324.00
2019-03-23T05:52:53.906Z,328.00
2019-03-23T05:53:53.893Z,336.00
2019-03-23T05:54:53.885Z,368.00
2019-03-23T05:55:54.816Z,380.00
2019-03-23T05:56:53.866Z,392.00
2019-03-23T05:57:53.861Z,380.00
2019-03-23T05:58:53.855Z,384.00
2019-03-23T05:59:53.869Z,408.00
2019-03-23T06:00:53.828Z,400.00
2019-03-23T06:01:53.836Z,408.00
2019-03-23T06:02:53.831Z,424.00
2019-03-23T06:03:53.807Z,424.00
2019-03-23T06:04:53.813Z,456.00
2019-03-23T06:05:53.779Z,456.00
2019-03-23T06:06:56.332Z,492.00
2019-03-23T06:07:53.784Z,520.00
2019-03-23T06:08:55.372Z,536.00
2019-03-23T06:09:53.746Z,552.00
2019-03-23T06:10:53.742Z,576.00
2019-03-23T06:11:53.731Z,612.00
2019-03-23T06:12:53.717Z,612.00
2019-03-23T06:13:53.704Z,596.00
2019-03-23T06:14:53.708Z,600.00
2019-03-23T06:15:53.693Z,616.00
2019-03-23T06:16:54.346Z,632.00
2019-03-23T06:17:53.674Z,628.00
2019-03-23T06:18:53.656Z,652.00
2019-03-23T06:19:53.654Z,672.00
2019-03-23T06:20:53.652Z,632.00
2019-03-23T06:21:53.636Z,620.00
2019-03-23T06:22:53.626Z,624.00
2019-03-23T06:23:53.625Z,688.00
2019-03-23T06:24:53.618Z,760.00
2019-03-23T06:25:53.595Z,720.00
2019-03-23T06:26:53.590Z,708.00
2019-03-23T06:28:01.318Z,692.00
2019-03-23T06:29:49.098Z,660.00
2019-03-23T06:30:54.738Z,648.00
2019-03-23T06:32:42.003Z,680.00
2019-03-23T06:33:40.949Z,664.00
2019-03-23T06:35:34.503Z,664.00
2019-03-23T06:36:34.422Z,676.00
2019-03-23T06:38:27.900Z,736.00
2019-03-23T06:39:27.833Z,824.00
2019-03-23T06:40:27.845Z,860.00
2019-03-23T06:41:28.363Z,848.00
2019-03-23T06:42:27.811Z,872.00
2019-03-23T06:43:27.808Z,904.00
2019-03-23T06:44:27.795Z,908.00
2019-03-23T06:45:27.776Z,964.00
2019-03-23T06:46:27.776Z,948.00
2019-03-23T06:47:27.760Z,1028.00
2019-03-23T06:48:27.757Z,1088.00
2019-03-23T06:49:27.738Z,1016.00
2019-03-23T06:50:27.738Z,944.00
2019-03-23T06:51:27.718Z,1024.00
2019-03-23T06:52:27.722Z,1116.00
2019-03-23T06:53:27.712Z,1092.00
2019-03-23T06:54:27.701Z,1088.00
2019-03-23T06:55:27.714Z,1172.00
2019-03-23T06:56:27.678Z,1192.00
2019-03-23T06:57:27.691Z,1136.00
2019-03-23T06:58:27.658Z,1088.00
2019-03-23T06:59:27.663Z,1076.00
2019-03-23T07:00:27.644Z,1220.00
2019-03-23T07:01:27.629Z,1332.00
2019-03-23T07:02:27.621Z,1360.00
2019-03-23T07:03:27.612Z,1312.00
2019-03-23T07:04:27.614Z,1320.00
2019-03-23T07:05:27.602Z,1276.00
2019-03-23T07:06:27.643Z,1216.00
2019-03-23T07:07:27.581Z,1256.00
2019-03-23T07:08:31.892Z,1304.00
2019-03-23T07:09:27.554Z,1320.00
2019-03-23T07:10:27.562Z,1452.00
2019-03-23T07:11:27.549Z,1744.00
2019-03-23T07:12:27.530Z,1732.00
2019-03-23T07:13:27.519Z,1904.00
2019-03-23T07:14:27.508Z,1904.00
2019-03-23T07:15:27.492Z,1832.00
2019-03-23T07:16:27.504Z,1896.00
2019-03-23T07:17:27.480Z,1920.00
2019-03-23T07:18:27.478Z,1900.00
2019-03-23T07:19:27.464Z,2064.00
2019-03-23T07:20:27.453Z,2284.00
2019-03-23T07:21:27.449Z,2428.00
2019-03-23T07:22:27.436Z,2460.00
2019-03-23T07:23:27.448Z,2588.00
2019-03-23T07:24:27.416Z,2536.00
2019-03-23T07:25:27.411Z,2520.00
2019-03-23T07:26:27.402Z,2560.00
2019-03-23T07:27:27.388Z,2564.00
2019-03-23T07:28:27.393Z,2612.00
2019-03-23T07:29:27.375Z,2904.00
2019-03-23T07:30:27.368Z,3048.00
2019-03-23T07:31:27.356Z,3292.00
2019-03-23T07:32:27.345Z,3440.00
2019-03-23T07:33:27.334Z,3368.00
2019-03-23T07:34:27.331Z,3288.00
2019-03-23T07:35:27.328Z,3188.00
2019-03-23T07:36:27.310Z,2888.00
2019-03-23T07:37:27.298Z,2816.00
2019-03-23T07:38:27.312Z,2728.00
2019-03-23T07:39:30.347Z,2644.00
2019-03-23T07:40:27.274Z,2940.00
2019-03-23T07:41:27.264Z,3280.00
2019-03-23T07:42:27.268Z,3352.00
2019-03-23T07:43:27.244Z,3300.00
2019-03-23T07:44:27.256Z,3076.00
2019-03-23T07:45:27.237Z,3136.00
2019-03-23T07:46:27.211Z,3508.00
2019-03-23T07:47:27.206Z,3516.00
2019-03-23T07:48:28.578Z,3300.00
2019-03-23T07:49:27.188Z,3212.00
2019-03-23T07:50:27.195Z,3392.00
2019-03-23T07:51:27.169Z,3400.00
2019-03-23T07:52:27.165Z,2892.00
2019-03-23T07:53:27.156Z,3432.00
2019-03-23T07:54:27.151Z,3752.00
2019-03-23T07:55:27.154Z,4088.00
2019-03-23T07:56:27.129Z,4184.00
2019-03-23T07:57:27.127Z,4240.00
2019-03-23T07:58:27.110Z,4424.00
2019-03-23T07:59:27.100Z,4692.00
2019-03-23T08:00:27.094Z,4792.00
2019-03-23T08:01:27.125Z,4600.00
2019-03-23T08:02:27.076Z,4076.00
2019-03-23T08:03:27.063Z,3676.00
2019-03-23T08:04:27.061Z,3752.00
2019-03-23T08:05:27.046Z,4284.00
2019-03-23T08:06:27.039Z,4716.00
2019-03-23T08:07:27.045Z,4704.00
2019-03-23T08:08:27.027Z,4736.00
2019-03-23T08:09:37.098Z,5152.00
2019-03-23T08:10:27.008Z,5512.00
2019-03-23T08:11:26.998Z,5508.00
2019-03-23T08:12:26.988Z,5140.00
2019-03-23T08:13:27.066Z,4192.00
2019-03-23T08:14:26.976Z,3724.00
2019-03-23T08:15:26.967Z,4112.00
2019-03-23T08:16:26.955Z,4408.00
2019-03-23T08:17:26.964Z,4324.00
2019-03-23T08:18:26.950Z,4228.00
2019-03-23T08:19:26.929Z,4268.00
2019-03-23T08:20:27.898Z,4244.00
2019-03-23T08:21:26.911Z,4244.00
2019-03-23T08:22:26.907Z,4220.00
2019-03-23T08:23:26.894Z,4328.00
2019-03-23T08:24:26.906Z,4816.00
2019-03-23T08:25:26.885Z,5160.00
2019-03-23T08:26:26.870Z,5260.00
2019-03-23T08:27:26.867Z,5256.00
2019-03-23T08:28:26.883Z,5108.00
2019-03-23T08:29:26.899Z,5196.00
2019-03-23T08:30:26.853Z,5320.00
2019-03-23T08:31:26.836Z,5280.00
2019-03-23T08:32:26.817Z,5340.00
2019-03-23T08:33:26.821Z,4828.00
2019-03-23T08:34:26.802Z,4364.00
2019-03-23T08:35:26.799Z,4520.00
2019-03-23T08:36:26.781Z,4792.00
2019-03-23T08:37:26.780Z,4676.00
2019-03-23T08:38:26.784Z,4272.00
2019-03-23T08:39:26.761Z,4528.00
2019-03-23T08:40:26.762Z,5072.00
2019-03-23T08:41:26.745Z,4952.00
2019-03-23T08:42:26.738Z,4764.00
2019-03-23T08:43:26.734Z,4632.00
2019-03-23T08:44:26.714Z,4384.00
2019-03-23T08:45:26.709Z,4376.00
2019-03-23T08:46:26.714Z,4600.00
2019-03-23T08:47:26.700Z,4556.00
2019-03-23T08:48:26.710Z,4600.00
2019-03-23T08:49:28.586Z,4684.00
2019-03-23T08:50:26.666Z,5052.00
2019-03-23T08:51:26.654Z,5160.00
2019-03-23T08:52:28.851Z,5112.00
2019-03-23T08:53:26.641Z,5428.00
2019-03-23T08:54:26.636Z,5472.00
2019-03-23T08:55:26.702Z,5320.00
2019-03-23T08:56:26.624Z,5748.00
2019-03-23T08:57:26.609Z,5332.00
2019-03-23T08:58:26.633Z,5656.00
2019-03-23T08:59:26.608Z,6032.00
2019-03-23T09:00:26.593Z,5936.00
2019-03-23T09:01:26.575Z,6276.00
2019-03-23T09:02:26.579Z,7068.00
2019-03-23T09:03:26.561Z,7372.00
2019-03-23T09:04:26.546Z,7380.00
2019-03-23T09:05:26.561Z,7408.00
2019-03-23T09:06:26.536Z,7276.00
2019-03-23T09:07:26.552Z,7132.00
2019-03-23T09:08:26.517Z,7460.00
2019-03-23T09:09:26.507Z,7916.00
2019-03-23T09:10:26.524Z,8184.00
2019-03-23T09:11:26.520Z,7880.00
2019-03-23T09:12:26.494Z,7984.00
2019-03-23T09:13:26.495Z,8064.00
2019-03-23T09:14:26.468Z,8268.00
2019-03-23T09:15:26.461Z,8884.00
2019-03-23T09:16:26.450Z,9556.00
2019-03-23T09:17:26.479Z,9744.00
2019-03-23T09:18:26.454Z,8452.00
2019-03-23T09:19:26.437Z,7560.00
2019-03-23T09:20:26.422Z,7332.00
2019-03-23T09:21:26.411Z,7384.00
2019-03-23T09:22:26.407Z,7416.00
2019-03-23T09:23:26.406Z,7448.00
2019-03-23T09:24:26.409Z,7580.00
2019-03-23T09:25:26.385Z,7600.00
2019-03-23T09:26:26.933Z,7516.00
2019-03-23T09:27:26.375Z,8240.00
2019-03-23T09:28:26.363Z,9384.00
2019-03-23T09:29:26.356Z,10080.00
2019-03-23T09:30:26.350Z,10376.00
2019-03-23T09:31:26.344Z,10304.00
2019-03-23T09:32:26.332Z,9936.00
2019-03-23T09:33:26.318Z,10192.00
2019-03-23T09:34:26.345Z,10952.00
2019-03-23T09:35:26.310Z,11192.00
2019-03-23T09:36:26.312Z,11156.00
2019-03-23T09:37:26.290Z,10592.00
2019-03-23T09:38:26.360Z,10392.00
2019-03-23T09:39:26.276Z,10840.00
2019-03-23T09:40:26.263Z,10676.00
2019-03-23T09:41:26.267Z,10004.00
2019-03-23T09:42:26.251Z,10188.00
2019-03-23T09:43:26.246Z,10856.00
2019-03-23T09:44:26.237Z,11392.00
2019-03-23T09:45:26.230Z,10920.00
2019-03-23T09:46:26.221Z,10384.00
2019-03-23T09:47:26.229Z,10708.00
2019-03-23T09:48:26.211Z,10044.00
2019-03-23T09:49:26.196Z,10868.00
2019-03-23T09:50:26.196Z,11792.00
2019-03-23T09:51:26.188Z,11932.00
2019-03-23T09:52:26.193Z,13528.00
2019-03-23T09:53:26.172Z,13228.00
2019-03-23T09:54:26.168Z,14736.00
2019-03-23T09:55:28.532Z,14424.00
2019-03-23T09:56:26.152Z,13532.00
2019-03-23T09:57:26.145Z,12636.00
2019-03-23T09:58:26.147Z,13416.00
2019-03-23T09:59:26.129Z,13344.00
2019-03-23T10:00:26.124Z,14192.00
2019-03-23T10:01:26.116Z,15268.00
2019-03-23T10:02:26.106Z,15292.00
2019-03-23T10:03:26.091Z,15268.00
2019-03-23T10:04:26.094Z,15192.00
2019-03-23T10:05:26.091Z,14444.00
2019-03-23T10:06:26.078Z,15068.00
2019-03-23T10:07:26.946Z,14620.00
2019-03-23T10:08:26.073Z,13568.00
2019-03-23T10:09:26.053Z,12984.00
2019-03-23T10:10:26.055Z,12376.00
2019-03-23T10:11:26.048Z,11436.00
2019-03-23T10:12:26.046Z,12132.00
2019-03-23T10:13:26.035Z,13072.00
2019-03-23T10:14:26.027Z,14500.00
2019-03-23T10:15:26.033Z,17040.00
2019-03-23T10:16:26.008Z,19584.00
2019-03-23T10:17:26.003Z,20320.00
2019-03-23T10:18:25.998Z,18816.00
2019-03-23T10:19:25.994Z,15916.00
2019-03-23T10:20:33.672Z,14828.00
2019-03-23T10:22:53.022Z,17856.00
2019-03-23T10:23:21.964Z,19008.00
2019-03-23T10:24:21.959Z,19296.00
2019-03-23T10:25:21.961Z,17760.00
2019-03-23T10:26:21.954Z,14392.00
2019-03-23T10:27:21.945Z,13744.00
2019-03-23T10:28:21.940Z,13536.00
2019-03-23T10:29:21.985Z,12940.00
2019-03-23T10:30:21.917Z,13880.00
2019-03-23T10:31:21.914Z,15120.00
2019-03-23T10:32:21.912Z,16188.00
2019-03-23T10:33:30.778Z,17856.00
2019-03-23T10:35:23.182Z,19040.00
2019-03-23T10:36:15.396Z,18752.00
2019-03-23T10:38:08.917Z,19584.00
2019-03-23T10:39:08.877Z,19232.00
2019-03-23T10:42:19.964Z,14200.00
2019-03-23T10:42:47.135Z,17072.00
2019-03-23T10:43:47.489Z,22112.00
2019-03-23T10:45:23.117Z,26400.00
2019-03-23T10:45:47.061Z,23104.00
2019-03-23T10:46:47.061Z,22528.00
2019-03-23T10:47:47.185Z,21536.00
2019-03-23T10:48:47.038Z,20288.00
2019-03-23T10:49:47.038Z,20704.00
2019-03-23T10:50:47.027Z,23168.00
2019-03-23T10:51:47.032Z,25344.00
2019-03-23T10:52:47.011Z,29792.00
2019-03-23T10:53:47.007Z,40352.00
2019-03-23T10:54:47.016Z,61760.00
2019-03-23T10:55:47.009Z,44160.00
2019-03-23T10:56:47.040Z,66784.00
2019-03-23T10:57:46.992Z,53024.00
2019-03-23T10:58:46.989Z,60768.00
2019-03-23T10:59:46.983Z,59552.00
2019-03-23T11:00:46.981Z,57344.00
2019-03-23T11:01:47.547Z,41952.00
2019-03-23T11:02:46.972Z,46208.00
2019-03-23T11:03:47.012Z,48224.00
2019-03-23T11:04:46.965Z,36544.00
2019-03-23T11:05:46.959Z,32960.00
2019-03-23T11:06:46.960Z,25920.00
2019-03-23T11:07:46.950Z,24000.00
2019-03-23T11:08:46.971Z,21280.00
2019-03-23T11:09:46.950Z,23328.00
2019-03-23T11:10:46.942Z,23520.00
2019-03-23T11:11:46.966Z,21184.00
2019-03-23T11:12:46.969Z,18912.00
2019-03-23T11:13:46.984Z,20032.00
2019-03-23T11:14:46.944Z,21760.00
2019-03-23T11:15:46.957Z,22144.00
2019-03-23T11:16:46.937Z,24544.00
2019-03-23T11:17:46.933Z,22080.00
2019-03-23T11:18:46.927Z,22080.00
2019-03-23T11:19:46.926Z,22688.00
2019-03-23T11:20:46.935Z,21696.00
2019-03-23T11:21:46.977Z,22528.00
2019-03-23T11:22:46.916Z,20800.00
2019-03-23T11:23:46.913Z,19680.00
2019-03-23T11:24:46.917Z,18720.00
2019-03-23T11:25:46.910Z,16552.00
2019-03-23T11:26:47.064Z,14672.00
2019-03-23T11:27:46.906Z,12244.00
2019-03-23T11:28:46.899Z,10840.00
2019-03-23T11:29:46.892Z,11652.00
2019-03-23T11:30:47.019Z,13136.00
2019-03-23T11:31:46.929Z,13572.00
2019-03-23T11:32:46.981Z,13424.00
2019-03-23T11:33:46.885Z,13308.00
2019-03-23T11:34:46.881Z,13676.00
2019-03-23T11:35:57.245Z,13636.00
2019-03-23T11:36:46.881Z,12176.00
2019-03-23T11:37:47.118Z,11676.00
2019-03-23T11:38:46.864Z,12636.00
2019-03-23T11:39:46.859Z,12888.00
2019-03-23T11:40:53.825Z,13084.00
2019-03-23T11:41:46.979Z,13296.00
2019-03-23T11:42:50.172Z,13232.00
2019-03-23T11:43:46.937Z,13264.00
2019-03-23T11:44:47.676Z,14084.00
2019-03-23T11:45:46.842Z,14056.00
2019-03-23T11:46:46.845Z,14364.00
2019-03-23T11:47:46.827Z,14780.00
2019-03-23T11:48:46.827Z,15220.00
2019-03-23T11:49:46.819Z,15072.00
2019-03-23T11:50:46.823Z,15344.00
2019-03-23T11:51:46.874Z,15408.00
2019-03-23T11:52:47.162Z,15204.00
2019-03-23T11:53:46.810Z,15272.00
2019-03-23T11:54:46.798Z,15600.00
2019-03-23T11:55:46.808Z,15636.00
2019-03-23T11:56:46.803Z,15872.00
2019-03-23T11:57:46.795Z,16920.00
2019-03-23T11:58:46.790Z,18368.00
2019-03-23T11:59:47.119Z,18880.00
2019-03-23T12:00:46.773Z,18688.00
2019-03-23T12:01:51.691Z,18016.00
2019-03-23T12:02:46.775Z,17376.00
2019-03-23T12:03:46.769Z,17088.00
2019-03-23T12:04:46.907Z,18016.00
2019-03-23T12:05:46.764Z,18368.00
2019-03-23T12:06:46.755Z,18336.00
2019-03-23T12:07:46.747Z,18976.00
2019-03-23T12:08:46.740Z,19456.00
2019-03-23T12:09:46.749Z,19552.00
2019-03-23T12:10:46.735Z,19360.00
2019-03-23T12:11:46.730Z,19360.00
2019-03-23T12:12:46.730Z,19872.00
2019-03-23T12:13:46.724Z,20320.00
2019-03-23T12:14:46.727Z,20224.00
2019-03-23T12:15:46.719Z,19200.00
2019-03-23T12:16:47.611Z,19104.00
2019-03-23T12:17:46.704Z,19328.00
2019-03-23T12:18:46.703Z,18976.00
2019-03-23T12:19:46.703Z,18432.00
2019-03-23T12:20:46.726Z,17888.00
2019-03-23T12:21:46.708Z,17632.00
2019-03-23T12:22:46.689Z,17312.00
2019-03-23T12:23:46.682Z,16472.00
2019-03-23T12:24:46.698Z,15360.00
2019-03-23T12:25:46.672Z,14580.00
2019-03-23T12:26:46.674Z,14048.00
2019-03-23T12:27:46.664Z,12932.00
2019-03-23T12:28:46.659Z,12892.00
2019-03-23T12:29:46.662Z,13932.00
2019-03-23T12:30:46.656Z,14468.00
2019-03-23T12:31:46.655Z,14428.00
2019-03-23T12:32:46.652Z,14176.00
2019-03-23T12:33:46.637Z,14096.00
2019-03-23T12:34:46.653Z,14132.00
2019-03-23T12:35:46.636Z,13456.00
2019-03-23T12:36:46.628Z,12164.00
2019-03-23T12:37:46.624Z,11664.00
2019-03-23T12:38:46.619Z,11268.00
2019-03-23T12:39:46.651Z,11232.00
2019-03-23T12:40:46.610Z,11960.00
2019-03-23T12:41:46.611Z,12400.00
2019-03-23T12:42:46.610Z,12240.00
2019-03-23T12:43:46.610Z,11628.00
2019-03-23T12:44:46.598Z,11432.00
2019-03-23T12:45:46.601Z,10868.00
2019-03-23T12:46:48.443Z,10184.00